sensor_id;sensor_type;location;lat;lon;timestamp;P1;durP1;ratioP1;P2;durP2;ratioP2
7383;SDS011;3733;47.994;8.820;2023-08-01T00:00:25;5.20;;;3.37;;
7383;SDS011;3733;47.994;8.820;2023-08-01T00:02:50;6.30;;;4.10;;
7383;SDS011;3733;47.994;8.820;2023-08-01T00:05:16;8.10;;;3.63;;
7383;SDS011;3733;47.994;8.820;2023-08-01T00:07:42;6.30;;;3.93;;
7383;SDS011;3733;47.994;8.820;2023-08-01T00:10:08;6.43;;;4.47;;
7383;SDS011;3733;47.994;8.820;2023-08-01T00:12:34;5.17;;;3.80;;
7383;SDS011;3733;47.994;8.820;2023-08-01T00:14:59;9.03;;;3.90;;
7383;SDS011;3733;47.994;8.820;2023-08-01T00:17:25;4.57;;;3.30;;
7383;SDS011;3733;47.994;8.820;2023-08-01T00:19:51;5.53;;;3.93;;
7383;SDS011;3733;47.994;8.820;2023-08-01T00:22:16;4.73;;;3.63;;
7383;SDS011;3733;47.994;8.820;2023-08-01T00:24:42;8.60;;;4.23;;
7383;SDS011;3733;47.994;8.820;2023-08-01T00:27:08;6.60;;;3.70;;
7383;SDS011;3733;47.994;8.820;2023-08-01T00:29:35;5.90;;;3.13;;
7383;SDS011;3733;47.994;8.820;2023-08-01T00:32:01;6.63;;;4.10;;
7383;SDS011;3733;47.994;8.820;2023-08-01T00:34:26;5.60;;;4.10;;
7383;SDS011;3733;47.994;8.820;2023-08-01T00:36:52;9.60;;;4.23;;
7383;SDS011;3733;47.994;8.820;2023-08-01T00:39:17;7.40;;;3.97;;
7383;SDS011;3733;47.994;8.820;2023-08-01T00:41:43;5.13;;;3.60;;
7383;SDS011;3733;47.994;8.820;2023-08-01T00:44:08;4.60;;;3.53;;
7383;SDS011;3733;47.994;8.820;2023-08-01T00:46:34;10.30;;;4.07;;
7383;SDS011;3733;47.994;8.820;2023-08-01T00:49:00;12.27;;;4.57;;
7383;SDS011;3733;47.994;8.820;2023-08-01T00:51:26;8.40;;;4.23;;
7383;SDS011;3733;47.994;8.820;2023-08-01T00:53:52;5.37;;;3.83;;
7383;SDS011;3733;47.994;8.820;2023-08-01T00:56:18;9.80;;;4.10;;
7383;SDS011;3733;47.994;8.820;2023-08-01T00:58:44;5.20;;;3.87;;
7383;SDS011;3733;47.994;8.820;2023-08-01T01:01:09;4.90;;;3.53;;
7383;SDS011;3733;47.994;8.820;2023-08-01T01:03:35;5.40;;;3.50;;
7383;SDS011;3733;47.994;8.820;2023-08-01T01:06:06;6.87;;;4.23;;
7383;SDS011;3733;47.994;8.820;2023-08-01T01:08:37;5.97;;;3.70;;
7383;SDS011;3733;47.994;8.820;2023-08-01T01:11:02;5.10;;;3.43;;
7383;SDS011;3733;47.994;8.820;2023-08-01T01:13:29;9.50;;;3.90;;
7383;SDS011;3733;47.994;8.820;2023-08-01T01:15:55;8.00;;;4.40;;
7383;SDS011;3733;47.994;8.820;2023-08-01T01:18:20;8.53;;;4.37;;
7383;SDS011;3733;47.994;8.820;2023-08-01T01:20:46;7.87;;;3.80;;
7383;SDS011;3733;47.994;8.820;2023-08-01T01:23:11;8.03;;;4.37;;
7383;SDS011;3733;47.994;8.820;2023-08-01T01:25:37;8.23;;;4.27;;
7383;SDS011;3733;47.994;8.820;2023-08-01T01:28:04;8.43;;;4.07;;
7383;SDS011;3733;47.994;8.820;2023-08-01T01:30:32;6.50;;;3.70;;
7383;SDS011;3733;47.994;8.820;2023-08-01T01:32:59;7.57;;;4.50;;
7383;SDS011;3733;47.994;8.820;2023-08-01T01:35:28;4.73;;;3.70;;
7383;SDS011;3733;47.994;8.820;2023-08-01T01:37:54;6.83;;;4.60;;
7383;SDS011;3733;47.994;8.820;2023-08-01T01:40:20;6.33;;;3.80;;
7383;SDS011;3733;47.994;8.820;2023-08-01T01:42:46;6.90;;;4.10;;
7383;SDS011;3733;47.994;8.820;2023-08-01T01:45:13;8.03;;;4.83;;
7383;SDS011;3733;47.994;8.820;2023-08-01T01:47:39;5.47;;;4.03;;
7383;SDS011;3733;47.994;8.820;2023-08-01T01:50:04;6.90;;;4.13;;
7383;SDS011;3733;47.994;8.820;2023-08-01T01:52:30;5.63;;;4.10;;
7383;SDS011;3733;47.994;8.820;2023-08-01T01:54:57;4.67;;;3.67;;
7383;SDS011;3733;47.994;8.820;2023-08-01T01:57:23;7.43;;;4.73;;
7383;SDS011;3733;47.994;8.820;2023-08-01T01:59:49;10.60;;;4.77;;
7383;SDS011;3733;47.994;8.820;2023-08-01T02:02:14;5.27;;;3.77;;
7383;SDS011;3733;47.994;8.820;2023-08-01T02:04:40;6.20;;;4.63;;
7383;SDS011;3733;47.994;8.820;2023-08-01T02:07:05;8.97;;;4.50;;
7383;SDS011;3733;47.994;8.820;2023-08-01T02:09:31;9.03;;;4.80;;
7383;SDS011;3733;47.994;8.820;2023-08-01T02:11:57;8.30;;;4.53;;
7383;SDS011;3733;47.994;8.820;2023-08-01T02:14:22;11.40;;;4.73;;
7383;SDS011;3733;47.994;8.820;2023-08-01T02:16:48;7.27;;;5.30;;
7383;SDS011;3733;47.994;8.820;2023-08-01T02:19:13;8.30;;;4.40;;
7383;SDS011;3733;47.994;8.820;2023-08-01T02:21:39;7.37;;;4.77;;
7383;SDS011;3733;47.994;8.820;2023-08-01T02:24:04;9.50;;;4.60;;
7383;SDS011;3733;47.994;8.820;2023-08-01T02:26:30;6.47;;;3.90;;
7383;SDS011;3733;47.994;8.820;2023-08-01T02:28:56;7.37;;;4.40;;
7383;SDS011;3733;47.994;8.820;2023-08-01T02:31:21;7.20;;;4.07;;
7383;SDS011;3733;47.994;8.820;2023-08-01T02:33:47;5.60;;;3.87;;
7383;SDS011;3733;47.994;8.820;2023-08-01T02:36:13;8.20;;;4.13;;
7383;SDS011;3733;47.994;8.820;2023-08-01T02:38:38;6.13;;;3.83;;
7383;SDS011;3733;47.994;8.820;2023-08-01T02:41:04;5.20;;;4.00;;
7383;SDS011;3733;47.994;8.820;2023-08-01T02:43:29;6.97;;;4.40;;
7383;SDS011;3733;47.994;8.820;2023-08-01T02:45:55;8.70;;;4.80;;
7383;SDS011;3733;47.994;8.820;2023-08-01T02:48:21;8.40;;;4.40;;
7383;SDS011;3733;47.994;8.820;2023-08-01T02:50:46;7.80;;;4.30;;
7383;SDS011;3733;47.994;8.820;2023-08-01T02:53:13;5.40;;;4.27;;
7383;SDS011;3733;47.994;8.820;2023-08-01T02:55:38;6.30;;;4.23;;
7383;SDS011;3733;47.994;8.820;2023-08-01T02:58:04;7.00;;;4.07;;
7383;SDS011;3733;47.994;8.820;2023-08-01T03:00:30;6.00;;;4.00;;
7383;SDS011;3733;47.994;8.820;2023-08-01T03:02:57;5.40;;;3.87;;
7383;SDS011;3733;47.994;8.820;2023-08-01T03:05:22;6.67;;;3.30;;
7383;SDS011;3733;47.994;8.820;2023-08-01T03:07:48;7.90;;;3.70;;
7383;SDS011;3733;47.994;8.820;2023-08-01T03:10:13;5.70;;;3.77;;
7383;SDS011;3733;47.994;8.820;2023-08-01T03:12:39;6.60;;;3.97;;
7383;SDS011;3733;47.994;8.820;2023-08-01T03:15:05;8.50;;;3.73;;
7383;SDS011;3733;47.994;8.820;2023-08-01T03:17:33;12.37;;;4.70;;
7383;SDS011;3733;47.994;8.820;2023-08-01T03:19:59;11.33;;;4.63;;
7383;SDS011;3733;47.994;8.820;2023-08-01T03:22:25;5.00;;;3.60;;
7383;SDS011;3733;47.994;8.820;2023-08-01T03:24:50;9.40;;;3.60;;
7383;SDS011;3733;47.994;8.820;2023-08-01T03:27:16;10.43;;;4.23;;
7383;SDS011;3733;47.994;8.820;2023-08-01T03:29:42;5.60;;;3.50;;
7383;SDS011;3733;47.994;8.820;2023-08-01T03:32:07;11.37;;;3.80;;
7383;SDS011;3733;47.994;8.820;2023-08-01T03:34:33;5.50;;;3.33;;
7383;SDS011;3733;47.994;8.820;2023-08-01T03:36:58;12.37;;;3.57;;
7383;SDS011;3733;47.994;8.820;2023-08-01T03:39:24;9.60;;;3.30;;
7383;SDS011;3733;47.994;8.820;2023-08-01T03:41:50;5.10;;;3.57;;
7383;SDS011;3733;47.994;8.820;2023-08-01T03:44:16;8.17;;;3.30;;
7383;SDS011;3733;47.994;8.820;2023-08-01T03:46:42;7.43;;;3.90;;
7383;SDS011;3733;47.994;8.820;2023-08-01T03:49:08;5.27;;;3.30;;
7383;SDS011;3733;47.994;8.820;2023-08-01T03:51:34;5.77;;;3.27;;
7383;SDS011;3733;47.994;8.820;2023-08-01T03:54:00;6.07;;;3.67;;
7383;SDS011;3733;47.994;8.820;2023-08-01T03:56:25;5.13;;;3.60;;
7383;SDS011;3733;47.994;8.820;2023-08-01T03:58:52;8.43;;;3.87;;
7383;SDS011;3733;47.994;8.820;2023-08-01T04:01:18;8.50;;;3.40;;
7383;SDS011;3733;47.994;8.820;2023-08-01T04:03:43;8.27;;;3.60;;
7383;SDS011;3733;47.994;8.820;2023-08-01T04:06:09;6.87;;;3.23;;
7383;SDS011;3733;47.994;8.820;2023-08-01T04:08:35;7.93;;;3.80;;
7383;SDS011;3733;47.994;8.820;2023-08-01T04:11:01;7.17;;;3.57;;
7383;SDS011;3733;47.994;8.820;2023-08-01T04:13:27;5.20;;;3.03;;
7383;SDS011;3733;47.994;8.820;2023-08-01T04:15:52;12.33;;;3.73;;
7383;SDS011;3733;47.994;8.820;2023-08-01T04:18:18;5.63;;;3.50;;
7383;SDS011;3733;47.994;8.820;2023-08-01T04:20:43;5.50;;;3.20;;
7383;SDS011;3733;47.994;8.820;2023-08-01T04:23:09;7.60;;;3.80;;
7383;SDS011;3733;47.994;8.820;2023-08-01T04:25:34;5.37;;;3.00;;
7383;SDS011;3733;47.994;8.820;2023-08-01T04:28:00;8.57;;;3.60;;
7383;SDS011;3733;47.994;8.820;2023-08-01T04:30:26;6.60;;;3.87;;
7383;SDS011;3733;47.994;8.820;2023-08-01T04:32:51;5.33;;;3.70;;
7383;SDS011;3733;47.994;8.820;2023-08-01T04:35:17;6.60;;;3.37;;
7383;SDS011;3733;47.994;8.820;2023-08-01T04:37:42;5.67;;;4.13;;
7383;SDS011;3733;47.994;8.820;2023-08-01T04:40:08;9.63;;;4.43;;
7383;SDS011;3733;47.994;8.820;2023-08-01T04:42:34;10.90;;;4.13;;
7383;SDS011;3733;47.994;8.820;2023-08-01T04:44:59;8.43;;;3.80;;
7383;SDS011;3733;47.994;8.820;2023-08-01T04:47:25;7.30;;;3.60;;
7383;SDS011;3733;47.994;8.820;2023-08-01T04:49:50;6.20;;;3.70;;
7383;SDS011;3733;47.994;8.820;2023-08-01T04:52:16;6.40;;;3.70;;
7383;SDS011;3733;47.994;8.820;2023-08-01T04:54:42;6.90;;;3.53;;
7383;SDS011;3733;47.994;8.820;2023-08-01T04:57:07;9.20;;;4.23;;
7383;SDS011;3733;47.994;8.820;2023-08-01T04:59:33;7.87;;;4.00;;
7383;SDS011;3733;47.994;8.820;2023-08-01T05:01:58;8.57;;;4.20;;
7383;SDS011;3733;47.994;8.820;2023-08-01T05:04:24;6.47;;;3.50;;
7383;SDS011;3733;47.994;8.820;2023-08-01T05:06:50;5.87;;;3.13;;
7383;SDS011;3733;47.994;8.820;2023-08-01T05:09:16;5.30;;;3.30;;
7383;SDS011;3733;47.994;8.820;2023-08-01T05:11:41;8.93;;;3.27;;
7383;SDS011;3733;47.994;8.820;2023-08-01T05:14:07;7.63;;;4.30;;
7383;SDS011;3733;47.994;8.820;2023-08-01T05:16:32;9.33;;;4.50;;
7383;SDS011;3733;47.994;8.820;2023-08-01T05:18:58;9.70;;;3.97;;
7383;SDS011;3733;47.994;8.820;2023-08-01T05:21:23;8.10;;;4.63;;
7383;SDS011;3733;47.994;8.820;2023-08-01T05:23:50;8.00;;;3.93;;
7383;SDS011;3733;47.994;8.820;2023-08-01T05:26:15;6.97;;;4.50;;
7383;SDS011;3733;47.994;8.820;2023-08-01T05:28:41;9.60;;;4.57;;
7383;SDS011;3733;47.994;8.820;2023-08-01T05:31:07;8.13;;;4.93;;
7383;SDS011;3733;47.994;8.820;2023-08-01T05:33:32;8.90;;;4.77;;
7383;SDS011;3733;47.994;8.820;2023-08-01T05:35:58;10.23;;;4.93;;
7383;SDS011;3733;47.994;8.820;2023-08-01T05:38:23;6.90;;;4.47;;
7383;SDS011;3733;47.994;8.820;2023-08-01T05:40:49;7.27;;;5.03;;
7383;SDS011;3733;47.994;8.820;2023-08-01T05:43:14;13.23;;;4.80;;
7383;SDS011;3733;47.994;8.820;2023-08-01T05:45:40;8.37;;;4.33;;
7383;SDS011;3733;47.994;8.820;2023-08-01T05:48:06;9.10;;;5.10;;
7383;SDS011;3733;47.994;8.820;2023-08-01T05:50:32;10.40;;;4.90;;
7383;SDS011;3733;47.994;8.820;2023-08-01T05:52:57;13.63;;;4.60;;
7383;SDS011;3733;47.994;8.820;2023-08-01T05:55:23;12.10;;;5.33;;
7383;SDS011;3733;47.994;8.820;2023-08-01T05:57:48;8.17;;;5.00;;
7383;SDS011;3733;47.994;8.820;2023-08-01T06:00:17;7.77;;;4.80;;
7383;SDS011;3733;47.994;8.820;2023-08-01T06:02:44;9.17;;;4.23;;
7383;SDS011;3733;47.994;8.820;2023-08-01T06:05:10;11.70;;;4.73;;
7383;SDS011;3733;47.994;8.820;2023-08-01T06:07:36;8.93;;;4.10;;
7383;SDS011;3733;47.994;8.820;2023-08-01T06:10:01;7.37;;;4.17;;
7383;SDS011;3733;47.994;8.820;2023-08-01T06:12:28;6.40;;;4.10;;
7383;SDS011;3733;47.994;8.820;2023-08-01T06:14:54;10.90;;;3.80;;
7383;SDS011;3733;47.994;8.820;2023-08-01T06:17:19;5.80;;;4.00;;
7383;SDS011;3733;47.994;8.820;2023-08-01T06:19:45;7.57;;;3.97;;
7383;SDS011;3733;47.994;8.820;2023-08-01T06:22:10;5.70;;;4.20;;
7383;SDS011;3733;47.994;8.820;2023-08-01T06:24:36;6.00;;;3.77;;
7383;SDS011;3733;47.994;8.820;2023-08-01T06:27:02;6.17;;;3.87;;
7383;SDS011;3733;47.994;8.820;2023-08-01T06:29:27;6.40;;;4.07;;
7383;SDS011;3733;47.994;8.820;2023-08-01T06:31:53;7.57;;;4.30;;
7383;SDS011;3733;47.994;8.820;2023-08-01T06:34:18;5.63;;;4.20;;
7383;SDS011;3733;47.994;8.820;2023-08-01T06:36:44;8.00;;;4.30;;
7383;SDS011;3733;47.994;8.820;2023-08-01T06:39:10;7.80;;;4.40;;
7383;SDS011;3733;47.994;8.820;2023-08-01T06:41:36;7.07;;;3.80;;
7383;SDS011;3733;47.994;8.820;2023-08-01T06:44:01;9.57;;;4.73;;
7383;SDS011;3733;47.994;8.820;2023-08-01T06:46:27;6.87;;;4.50;;
7383;SDS011;3733;47.994;8.820;2023-08-01T06:48:53;8.00;;;4.73;;
7383;SDS011;3733;47.994;8.820;2023-08-01T06:51:18;8.37;;;5.37;;
7383;SDS011;3733;47.994;8.820;2023-08-01T06:53:44;8.63;;;4.93;;
7383;SDS011;3733;47.994;8.820;2023-08-01T06:56:09;10.13;;;4.50;;
7383;SDS011;3733;47.994;8.820;2023-08-01T06:58:35;9.00;;;5.23;;
7383;SDS011;3733;47.994;8.820;2023-08-01T07:01:01;7.37;;;4.73;;
7383;SDS011;3733;47.994;8.820;2023-08-01T07:03:26;9.27;;;5.60;;
7383;SDS011;3733;47.994;8.820;2023-08-01T07:05:52;9.13;;;6.00;;
7383;SDS011;3733;47.994;8.820;2023-08-01T07:08:17;6.70;;;4.60;;
7383;SDS011;3733;47.994;8.820;2023-08-01T07:10:43;10.10;;;5.70;;
7383;SDS011;3733;47.994;8.820;2023-08-01T07:13:10;8.23;;;5.57;;
7383;SDS011;3733;47.994;8.820;2023-08-01T07:15:35;10.53;;;5.27;;
7383;SDS011;3733;47.994;8.820;2023-08-01T07:18:01;12.30;;;6.27;;
7383;SDS011;3733;47.994;8.820;2023-08-01T07:20:28;8.80;;;4.93;;
7383;SDS011;3733;47.994;8.820;2023-08-01T07:22:53;9.03;;;5.13;;
7383;SDS011;3733;47.994;8.820;2023-08-01T07:25:19;11.60;;;6.40;;
7383;SDS011;3733;47.994;8.820;2023-08-01T07:27:45;12.27;;;5.93;;
7383;SDS011;3733;47.994;8.820;2023-08-01T07:30:11;10.80;;;5.80;;
7383;SDS011;3733;47.994;8.820;2023-08-01T07:32:37;10.33;;;6.10;;
7383;SDS011;3733;47.994;8.820;2023-08-01T07:35:04;14.40;;;5.80;;
7383;SDS011;3733;47.994;8.820;2023-08-01T07:37:30;29.17;;;6.70;;
7383;SDS011;3733;47.994;8.820;2023-08-01T07:39:57;13.07;;;6.20;;
7383;SDS011;3733;47.994;8.820;2023-08-01T07:42:23;13.43;;;5.77;;
7383;SDS011;3733;47.994;8.820;2023-08-01T07:44:49;8.63;;;5.40;;
7383;SDS011;3733;47.994;8.820;2023-08-01T07:47:14;16.30;;;6.80;;
7383;SDS011;3733;47.994;8.820;2023-08-01T07:49:40;12.33;;;6.17;;
7383;SDS011;3733;47.994;8.820;2023-08-01T07:52:06;11.40;;;6.00;;
7383;SDS011;3733;47.994;8.820;2023-08-01T07:54:32;12.70;;;5.73;;
7383;SDS011;3733;47.994;8.820;2023-08-01T07:56:57;6.67;;;4.70;;
7383;SDS011;3733;47.994;8.820;2023-08-01T07:59:23;13.90;;;5.13;;
7383;SDS011;3733;47.994;8.820;2023-08-01T08:01:48;10.30;;;5.37;;
7383;SDS011;3733;47.994;8.820;2023-08-01T08:04:14;6.53;;;4.77;;
7383;SDS011;3733;47.994;8.820;2023-08-01T08:06:40;7.23;;;3.80;;
7383;SDS011;3733;47.994;8.820;2023-08-01T08:09:06;18.37;;;5.33;;
7383;SDS011;3733;47.994;8.820;2023-08-01T08:11:32;9.10;;;4.80;;
7383;SDS011;3733;47.994;8.820;2023-08-01T08:13:58;6.70;;;4.03;;
7383;SDS011;3733;47.994;8.820;2023-08-01T08:16:24;10.93;;;4.73;;
7383;SDS011;3733;47.994;8.820;2023-08-01T08:18:50;9.93;;;4.43;;
7383;SDS011;3733;47.994;8.820;2023-08-01T08:21:15;9.57;;;4.90;;
7383;SDS011;3733;47.994;8.820;2023-08-01T08:23:41;20.20;;;5.50;;
7383;SDS011;3733;47.994;8.820;2023-08-01T08:26:07;10.57;;;4.87;;
7383;SDS011;3733;47.994;8.820;2023-08-01T08:28:33;7.50;;;4.67;;
7383;SDS011;3733;47.994;8.820;2023-08-01T08:30:59;7.30;;;4.60;;
7383;SDS011;3733;47.994;8.820;2023-08-01T08:33:26;8.10;;;4.73;;
7383;SDS011;3733;47.994;8.820;2023-08-01T08:35:52;10.43;;;5.10;;
7383;SDS011;3733;47.994;8.820;2023-08-01T08:38:17;10.87;;;5.27;;
7383;SDS011;3733;47.994;8.820;2023-08-01T08:40:48;8.53;;;4.70;;
7383;SDS011;3733;47.994;8.820;2023-08-01T08:43:24;9.33;;;4.83;;
7383;SDS011;3733;47.994;8.820;2023-08-01T08:45:51;8.83;;;5.20;;
7383;SDS011;3733;47.994;8.820;2023-08-01T08:48:21;12.93;;;5.10;;
7383;SDS011;3733;47.994;8.820;2023-08-01T08:50:47;7.63;;;4.53;;
7383;SDS011;3733;47.994;8.820;2023-08-01T08:53:15;8.83;;;4.53;;
7383;SDS011;3733;47.994;8.820;2023-08-01T08:55:41;6.27;;;4.10;;
7383;SDS011;3733;47.994;8.820;2023-08-01T08:58:07;8.40;;;4.93;;
7383;SDS011;3733;47.994;8.820;2023-08-01T09:00:35;9.07;;;3.80;;
7383;SDS011;3733;47.994;8.820;2023-08-01T09:03:02;7.70;;;4.53;;
7383;SDS011;3733;47.994;8.820;2023-08-01T09:05:29;6.83;;;4.47;;
7383;SDS011;3733;47.994;8.820;2023-08-01T09:07:59;6.43;;;3.87;;
7383;SDS011;3733;47.994;8.820;2023-08-01T09:10:28;12.67;;;4.20;;
7383;SDS011;3733;47.994;8.820;2023-08-01T09:12:56;9.20;;;4.63;;
7383;SDS011;3733;47.994;8.820;2023-08-01T09:15:22;8.00;;;4.37;;
7383;SDS011;3733;47.994;8.820;2023-08-01T09:17:54;12.07;;;4.13;;
7383;SDS011;3733;47.994;8.820;2023-08-01T09:20:26;6.37;;;3.90;;
7383;SDS011;3733;47.994;8.820;2023-08-01T09:22:52;5.87;;;3.47;;
7383;SDS011;3733;47.994;8.820;2023-08-01T09:25:18;4.90;;;3.20;;
7383;SDS011;3733;47.994;8.820;2023-08-01T09:27:44;5.10;;;3.47;;
7383;SDS011;3733;47.994;8.820;2023-08-01T09:30:10;6.00;;;3.40;;
7383;SDS011;3733;47.994;8.820;2023-08-01T09:32:52;4.67;;;3.20;;
7383;SDS011;3733;47.994;8.820;2023-08-01T09:35:21;7.03;;;3.10;;
7383;SDS011;3733;47.994;8.820;2023-08-01T09:37:47;8.00;;;3.50;;
7383;SDS011;3733;47.994;8.820;2023-08-01T09:40:13;5.93;;;3.10;;
7383;SDS011;3733;47.994;8.820;2023-08-01T09:42:43;14.70;;;3.87;;
7383;SDS011;3733;47.994;8.820;2023-08-01T09:47:39;14.93;;;3.23;;
7383;SDS011;3733;47.994;8.820;2023-08-01T09:50:05;2.97;;;2.50;;
7383;SDS011;3733;47.994;8.820;2023-08-01T09:52:32;11.30;;;2.93;;
7383;SDS011;3733;47.994;8.820;2023-08-01T09:54:58;5.27;;;2.03;;
7383;SDS011;3733;47.994;8.820;2023-08-01T09:57:23;4.37;;;2.37;;
7383;SDS011;3733;47.994;8.820;2023-08-01T09:59:54;3.70;;;2.27;;
7383;SDS011;3733;47.994;8.820;2023-08-01T10:02:21;3.57;;;2.40;;
7383;SDS011;3733;47.994;8.820;2023-08-01T10:04:49;4.67;;;2.37;;
7383;SDS011;3733;47.994;8.820;2023-08-01T10:07:23;4.57;;;2.07;;
7383;SDS011;3733;47.994;8.820;2023-08-01T10:09:51;6.00;;;1.90;;
7383;SDS011;3733;47.994;8.820;2023-08-01T10:12:23;10.07;;;2.90;;
7383;SDS011;3733;47.994;8.820;2023-08-01T10:14:51;11.10;;;3.43;;
7383;SDS011;3733;47.994;8.820;2023-08-01T10:17:17;6.03;;;2.30;;
7383;SDS011;3733;47.994;8.820;2023-08-01T10:19:44;2.87;;;2.17;;
7383;SDS011;3733;47.994;8.820;2023-08-01T10:22:11;2.80;;;2.20;;
7383;SDS011;3733;47.994;8.820;2023-08-01T10:24:37;5.83;;;2.03;;
7383;SDS011;3733;47.994;8.820;2023-08-01T10:27:15;2.37;;;2.13;;
7383;SDS011;3733;47.994;8.820;2023-08-01T10:29:44;2.07;;;1.80;;
7383;SDS011;3733;47.994;8.820;2023-08-01T10:32:20;4.27;;;1.80;;
7383;SDS011;3733;47.994;8.820;2023-08-01T10:35:03;1.70;;;1.60;;
7383;SDS011;3733;47.994;8.820;2023-08-01T10:37:39;2.10;;;1.73;;
7383;SDS011;3733;47.994;8.820;2023-08-01T10:40:06;5.97;;;1.90;;
7383;SDS011;3733;47.994;8.820;2023-08-01T10:42:39;2.47;;;1.63;;
7383;SDS011;3733;47.994;8.820;2023-08-01T10:45:06;2.90;;;1.67;;
7383;SDS011;3733;47.994;8.820;2023-08-01T10:47:33;1.87;;;1.50;;
7383;SDS011;3733;47.994;8.820;2023-08-01T10:49:58;2.30;;;1.60;;
7383;SDS011;3733;47.994;8.820;2023-08-01T10:52:25;1.90;;;1.43;;
7383;SDS011;3733;47.994;8.820;2023-08-01T10:54:59;4.43;;;1.67;;
7383;SDS011;3733;47.994;8.820;2023-08-01T10:57:26;2.10;;;1.90;;
7383;SDS011;3733;47.994;8.820;2023-08-01T10:59:57;2.93;;;2.10;;
7383;SDS011;3733;47.994;8.820;2023-08-01T11:02:25;2.23;;;1.70;;
7383;SDS011;3733;47.994;8.820;2023-08-01T11:05:25;11.10;;;1.70;;
7383;SDS011;3733;47.994;8.820;2023-08-01T11:07:53;3.47;;;1.63;;
7383;SDS011;3733;47.994;8.820;2023-08-01T11:10:20;1.70;;;1.60;;
7383;SDS011;3733;47.994;8.820;2023-08-01T11:12:45;1.87;;;1.63;;
7383;SDS011;3733;47.994;8.820;2023-08-01T11:15:13;2.80;;;1.83;;
7383;SDS011;3733;47.994;8.820;2023-08-01T11:17:40;3.27;;;1.50;;
7383;SDS011;3733;47.994;8.820;2023-08-01T11:20:12;2.80;;;1.93;;
7383;SDS011;3733;47.994;8.820;2023-08-01T11:22:50;1.70;;;1.53;;
7383;SDS011;3733;47.994;8.820;2023-08-01T11:25:58;2.00;;;1.80;;
7383;SDS011;3733;47.994;8.820;2023-08-01T11:28:16;3.37;;;1.80;;
7383;SDS011;3733;47.994;8.820;2023-08-01T11:30:42;3.17;;;2.00;;
7383;SDS011;3733;47.994;8.820;2023-08-01T11:35:53;1.63;;;1.47;;
7383;SDS011;3733;47.994;8.820;2023-08-01T11:38:25;5.23;;;2.20;;
7383;SDS011;3733;47.994;8.820;2023-08-01T11:40:54;5.00;;;1.87;;
7383;SDS011;3733;47.994;8.820;2023-08-01T11:43:21;2.63;;;2.03;;
7383;SDS011;3733;47.994;8.820;2023-08-01T11:45:50;4.90;;;1.90;;
7383;SDS011;3733;47.994;8.820;2023-08-01T11:48:17;5.53;;;1.93;;
7383;SDS011;3733;47.994;8.820;2023-08-01T11:50:43;1.90;;;1.60;;
7383;SDS011;3733;47.994;8.820;2023-08-01T11:53:22;2.80;;;1.87;;
7383;SDS011;3733;47.994;8.820;2023-08-01T11:55:48;3.70;;;1.77;;
7383;SDS011;3733;47.994;8.820;2023-08-01T11:58:27;4.50;;;1.87;;
7383;SDS011;3733;47.994;8.820;2023-08-01T12:01:03;2.60;;;2.00;;
7383;SDS011;3733;47.994;8.820;2023-08-01T12:03:29;2.77;;;2.10;;
7383;SDS011;3733;47.994;8.820;2023-08-01T12:06:04;1.80;;;1.53;;
7383;SDS011;3733;47.994;8.820;2023-08-01T12:08:33;2.40;;;1.70;;
7383;SDS011;3733;47.994;8.820;2023-08-01T12:10:59;2.03;;;1.60;;
7383;SDS011;3733;47.994;8.820;2023-08-01T12:13:25;1.77;;;1.47;;
7383;SDS011;3733;47.994;8.820;2023-08-01T12:15:55;1.30;;;1.20;;
7383;SDS011;3733;47.994;8.820;2023-08-01T12:18:25;1.63;;;1.40;;
7383;SDS011;3733;47.994;8.820;2023-08-01T12:20:52;1.70;;;1.30;;
7383;SDS011;3733;47.994;8.820;2023-08-01T12:23:18;2.03;;;1.37;;
7383;SDS011;3733;47.994;8.820;2023-08-01T12:25:44;1.83;;;1.43;;
7383;SDS011;3733;47.994;8.820;2023-08-01T12:28:10;2.20;;;1.50;;
7383;SDS011;3733;47.994;8.820;2023-08-01T12:30:35;4.73;;;1.60;;
7383;SDS011;3733;47.994;8.820;2023-08-01T12:33:03;1.90;;;1.20;;
7383;SDS011;3733;47.994;8.820;2023-08-01T12:35:29;1.50;;;1.10;;
7383;SDS011;3733;47.994;8.820;2023-08-01T12:37:55;2.20;;;1.07;;
7383;SDS011;3733;47.994;8.820;2023-08-01T12:40:21;1.70;;;1.60;;
7383;SDS011;3733;47.994;8.820;2023-08-01T12:42:47;1.17;;;1.07;;
7383;SDS011;3733;47.994;8.820;2023-08-01T12:45:12;1.33;;;1.10;;
7383;SDS011;3733;47.994;8.820;2023-08-01T12:47:38;1.33;;;1.20;;
7383;SDS011;3733;47.994;8.820;2023-08-01T12:50:04;2.30;;;1.00;;
7383;SDS011;3733;47.994;8.820;2023-08-01T12:52:30;1.10;;;0.97;;
7383;SDS011;3733;47.994;8.820;2023-08-01T12:54:56;1.67;;;1.40;;
7383;SDS011;3733;47.994;8.820;2023-08-01T12:57:21;3.20;;;1.10;;
7383;SDS011;3733;47.994;8.820;2023-08-01T12:59:47;3.13;;;1.03;;
7383;SDS011;3733;47.994;8.820;2023-08-01T13:02:13;1.43;;;1.20;;
7383;SDS011;3733;47.994;8.820;2023-08-01T13:04:39;1.30;;;1.20;;
7383;SDS011;3733;47.994;8.820;2023-08-01T13:07:05;0.80;;;0.80;;
7383;SDS011;3733;47.994;8.820;2023-08-01T13:09:30;1.10;;;0.97;;
7383;SDS011;3733;47.994;8.820;2023-08-01T13:11:56;0.80;;;0.80;;
7383;SDS011;3733;47.994;8.820;2023-08-01T13:14:22;1.90;;;0.90;;
7383;SDS011;3733;47.994;8.820;2023-08-01T13:16:49;1.67;;;0.90;;
7383;SDS011;3733;47.994;8.820;2023-08-01T13:19:15;1.13;;;1.00;;
7383;SDS011;3733;47.994;8.820;2023-08-01T13:21:40;3.73;;;0.90;;
7383;SDS011;3733;47.994;8.820;2023-08-01T13:24:06;1.53;;;1.00;;
7383;SDS011;3733;47.994;8.820;2023-08-01T13:26:32;2.13;;;1.03;;
7383;SDS011;3733;47.994;8.820;2023-08-01T13:28:58;1.97;;;1.20;;
7383;SDS011;3733;47.994;8.820;2023-08-01T13:31:24;1.23;;;1.10;;
7383;SDS011;3733;47.994;8.820;2023-08-01T13:33:50;4.20;;;1.10;;
7383;SDS011;3733;47.994;8.820;2023-08-01T13:36:19;1.20;;;0.90;;
7383;SDS011;3733;47.994;8.820;2023-08-01T13:38:44;1.33;;;1.23;;
7383;SDS011;3733;47.994;8.820;2023-08-01T13:41:10;1.10;;;0.90;;
7383;SDS011;3733;47.994;8.820;2023-08-01T13:43:36;1.97;;;1.20;;
7383;SDS011;3733;47.994;8.820;2023-08-01T13:46:12;0.90;;;0.87;;
7383;SDS011;3733;47.994;8.820;2023-08-01T13:48:39;0.97;;;0.90;;
7383;SDS011;3733;47.994;8.820;2023-08-01T13:51:06;1.73;;;1.20;;
7383;SDS011;3733;47.994;8.820;2023-08-01T13:53:31;1.80;;;1.30;;
7383;SDS011;3733;47.994;8.820;2023-08-01T13:55:58;1.20;;;1.00;;
7383;SDS011;3733;47.994;8.820;2023-08-01T13:58:24;0.93;;;0.83;;
7383;SDS011;3733;47.994;8.820;2023-08-01T14:00:50;1.90;;;1.60;;
7383;SDS011;3733;47.994;8.820;2023-08-01T14:03:15;1.37;;;1.07;;
7383;SDS011;3733;47.994;8.820;2023-08-01T14:05:41;1.00;;;0.90;;
7383;SDS011;3733;47.994;8.820;2023-08-01T14:08:07;0.80;;;0.80;;
7383;SDS011;3733;47.994;8.820;2023-08-01T14:10:32;1.23;;;1.13;;
7383;SDS011;3733;47.994;8.820;2023-08-01T14:12:58;1.10;;;1.00;;
7383;SDS011;3733;47.994;8.820;2023-08-01T14:15:23;0.70;;;0.70;;
7383;SDS011;3733;47.994;8.820;2023-08-01T14:17:49;1.53;;;0.70;;
7383;SDS011;3733;47.994;8.820;2023-08-01T14:20:15;0.90;;;0.90;;
7383;SDS011;3733;47.994;8.820;2023-08-01T14:22:43;1.90;;;0.80;;
7383;SDS011;3733;47.994;8.820;2023-08-01T14:25:08;0.90;;;0.90;;
7383;SDS011;3733;47.994;8.820;2023-08-01T14:27:34;1.00;;;0.90;;
7383;SDS011;3733;47.994;8.820;2023-08-01T14:30:00;1.60;;;1.13;;
7383;SDS011;3733;47.994;8.820;2023-08-01T14:32:27;1.10;;;1.00;;
7383;SDS011;3733;47.994;8.820;2023-08-01T14:34:52;1.47;;;1.07;;
7383;SDS011;3733;47.994;8.820;2023-08-01T14:37:18;1.37;;;1.03;;
7383;SDS011;3733;47.994;8.820;2023-08-01T14:39:43;1.53;;;1.10;;
7383;SDS011;3733;47.994;8.820;2023-08-01T14:42:09;1.10;;;1.00;;
7383;SDS011;3733;47.994;8.820;2023-08-01T14:44:36;1.53;;;0.80;;
7383;SDS011;3733;47.994;8.820;2023-08-01T14:47:02;1.70;;;0.97;;
7383;SDS011;3733;47.994;8.820;2023-08-01T14:49:27;0.90;;;0.90;;
7383;SDS011;3733;47.994;8.820;2023-08-01T14:51:54;1.80;;;1.00;;
7383;SDS011;3733;47.994;8.820;2023-08-01T14:54:19;1.27;;;1.07;;
7383;SDS011;3733;47.994;8.820;2023-08-01T14:56:45;1.80;;;0.90;;
7383;SDS011;3733;47.994;8.820;2023-08-01T14:59:11;1.47;;;0.90;;
7383;SDS011;3733;47.994;8.820;2023-08-01T15:01:36;1.53;;;0.90;;
7383;SDS011;3733;47.994;8.820;2023-08-01T15:04:03;1.57;;;1.00;;
7383;SDS011;3733;47.994;8.820;2023-08-01T15:06:28;1.77;;;1.10;;
7383;SDS011;3733;47.994;8.820;2023-08-01T15:08:54;1.63;;;1.20;;
7383;SDS011;3733;47.994;8.820;2023-08-01T15:11:20;1.07;;;0.97;;
7383;SDS011;3733;47.994;8.820;2023-08-01T15:13:46;0.83;;;0.83;;